createdAt,value
2023-05-14T00:00:38.354Z,51.259529
2023-05-14T00:01:38.405Z,51.259605
2023-05-14T00:02:38.392Z,51.259525
2023-05-14T00:03:38.376Z,51.259556
2023-05-14T00:04:38.470Z,51.259518
2023-05-14T00:05:38.324Z,51.259533
2023-05-14T00:06:38.366Z,51.259598
2023-05-14T00:07:38.283Z,51.259529
2023-05-14T00:08:38.275Z,51.259586
2023-05-14T00:09:38.267Z,51.259602
2023-05-14T00:10:38.276Z,51.259533
2023-05-14T00:11:38.308Z,51.259651
2023-05-14T00:12:38.247Z,51.259697
2023-05-14T00:13:38.227Z,51.259670
2023-05-14T00:14:39.219Z,51.259682
2023-05-14T00:15:38.343Z,51.259617
2023-05-14T00:16:38.274Z,51.259712
2023-05-14T00:17:38.253Z,51.259701
2023-05-14T00:18:38.188Z,51.259666
2023-05-14T00:19:38.197Z,51.259632
2023-05-14T00:20:38.187Z,51.259544
2023-05-14T00:21:38.149Z,51.259563
2023-05-14T00:22:38.148Z,51.259579
2023-05-14T00:23:38.121Z,51.259594
2023-05-14T00:24:38.136Z,51.259628
2023-05-14T00:25:38.151Z,51.259644
2023-05-14T00:26:38.102Z,51.259628
2023-05-14T00:27:38.078Z,51.259560
2023-05-14T00:28:38.089Z,51.259571
2023-05-14T00:29:38.094Z,51.259529
2023-05-14T00:30:38.077Z,51.259567
2023-05-14T00:31:38.130Z,51.259602
2023-05-14T00:32:38.109Z,51.259602
2023-05-14T00:33:38.041Z,51.259579
2023-05-14T00:34:38.061Z,51.259552
2023-05-14T00:35:38.037Z,51.259689
2023-05-14T00:36:38.009Z,51.259739
2023-05-14T00:37:37.992Z,51.259705
2023-05-14T00:38:38.025Z,51.259537
2023-05-14T00:39:37.994Z,51.259682
2023-05-14T00:40:37.974Z,51.259644
2023-05-14T00:41:37.945Z,51.259525
2023-05-14T00:42:37.938Z,51.259449
2023-05-14T00:43:37.953Z,51.259544
2023-05-14T00:44:37.946Z,51.259613
2023-05-14T00:45:37.902Z,51.259613
2023-05-14T00:46:37.932Z,51.259514
2023-05-14T00:47:37.973Z,51.259624
2023-05-14T00:48:37.935Z,51.259605
2023-05-14T00:49:37.879Z,51.259556
2023-05-14T00:50:37.872Z,51.259563
2023-05-14T00:51:37.851Z,51.259506
2023-05-14T00:52:37.877Z,51.259407
2023-05-14T00:53:37.950Z,51.259384
2023-05-14T00:54:37.829Z,51.259514
2023-05-14T00:55:37.816Z,51.259518
2023-05-14T00:56:37.809Z,51.259487
2023-05-14T00:57:37.820Z,51.259480
2023-05-14T00:58:37.777Z,51.259579
2023-05-14T00:59:37.774Z,51.259670
2023-05-14T01:00:37.793Z,51.259514
2023-05-14T01:01:37.752Z,51.259521
2023-05-14T01:02:37.852Z,51.259506
2023-05-14T01:03:37.868Z,51.259560
2023-05-14T01:04:37.729Z,51.259533
2023-05-14T01:05:37.729Z,51.259449
2023-05-14T01:06:37.704Z,51.259529
2023-05-14T01:07:37.734Z,51.259544
2023-05-14T01:08:37.680Z,51.259464
2023-05-14T01:09:37.677Z,51.259575
2023-05-14T01:10:37.658Z,51.259636
2023-05-14T01:11:37.681Z,51.259628
2023-05-14T01:12:37.648Z,51.259605
2023-05-14T01:13:37.635Z,51.259602
2023-05-14T01:14:37.620Z,51.259567
2023-05-14T01:15:37.616Z,51.259548
2023-05-14T01:16:37.666Z,51.259563
2023-05-14T01:17:37.654Z,51.259525
2023-05-14T01:18:37.676Z,51.259563
2023-05-14T01:19:37.562Z,51.259537
2023-05-14T01:20:37.582Z,51.259556
2023-05-14T01:21:37.594Z,51.259560
2023-05-14T01:22:37.542Z,51.259563
2023-05-14T01:23:37.537Z,51.259525
2023-05-14T01:24:37.538Z,51.259502
2023-05-14T01:25:37.545Z,51.259529
2023-05-14T01:26:37.538Z,51.259537
2023-05-14T01:27:37.507Z,51.259525
2023-05-14T01:28:37.488Z,51.259521
2023-05-14T01:29:37.477Z,51.259541
2023-05-14T01:30:37.506Z,51.259552
2023-05-14T01:31:37.494Z,51.259563
2023-05-14T01:32:37.492Z,51.259563
2023-05-14T01:33:37.447Z,51.259617
2023-05-14T01:34:37.439Z,51.259602
2023-05-14T01:35:37.466Z,51.259567
2023-05-14T01:36:38.414Z,51.259533
2023-05-14T01:37:37.422Z,51.259579
2023-05-14T01:38:37.393Z,51.259510
2023-05-14T01:39:37.403Z,51.259560
2023-05-14T01:40:37.381Z,51.259594
2023-05-14T01:41:37.362Z,51.259563
2023-05-14T01:42:37.351Z,51.259548
2023-05-14T01:43:37.406Z,51.259548
2023-05-14T01:44:37.347Z,51.259579
2023-05-14T01:45:37.315Z,51.259613
2023-05-14T01:46:38.388Z,51.259552
2023-05-14T01:47:37.321Z,51.259594
2023-05-14T01:48:37.346Z,51.259583
2023-05-14T01:49:37.305Z,51.259544
2023-05-14T01:50:37.269Z,51.259491
2023-05-14T01:51:37.261Z,51.259491
2023-05-14T01:52:37.264Z,51.259487
2023-05-14T01:53:37.278Z,51.259521
2023-05-14T01:54:38.230Z,51.259460
2023-05-14T01:55:37.220Z,51.259541
2023-05-14T01:56:37.229Z,51.259521
2023-05-14T01:57:37.199Z,51.259567
2023-05-14T01:58:37.213Z,51.259586
2023-05-14T01:59:37.183Z,51.259525
2023-05-14T02:00:37.189Z,51.259529
2023-05-14T02:01:37.198Z,51.259506
2023-05-14T02:02:37.265Z,51.259525
2023-05-14T02:03:37.170Z,51.259541
2023-05-14T02:04:37.143Z,51.259487
2023-05-14T02:05:37.125Z,51.259548
2023-05-14T02:06:37.147Z,51.259533
2023-05-14T02:07:37.144Z,51.259460
2023-05-14T02:08:37.100Z,51.259403
2023-05-14T02:09:37.102Z,51.259403
2023-05-14T02:10:37.088Z,51.259525
2023-05-14T02:11:37.090Z,51.259418
2023-05-14T02:12:37.075Z,51.259468
2023-05-14T02:13:37.053Z,51.259571
2023-05-14T02:14:37.055Z,51.259476
2023-05-14T02:15:37.055Z,51.259491
2023-05-14T02:16:37.015Z,51.259495
2023-05-14T02:17:38.079Z,51.259560
2023-05-14T02:18:37.039Z,51.259609
2023-05-14T02:19:37.009Z,51.259544
2023-05-14T02:20:36.975Z,51.259491
2023-05-14T02:21:36.966Z,51.259464
2023-05-14T02:22:36.965Z,51.259567
2023-05-14T02:23:41.567Z,51.259510
2023-05-14T02:24:38.976Z,51.259499
2023-05-14T02:25:36.946Z,51.259556
2023-05-14T02:26:36.951Z,51.259510
2023-05-14T02:27:36.954Z,51.259571
2023-05-14T02:28:36.909Z,51.259548
2023-05-14T02:29:36.910Z,51.259468
2023-05-14T02:30:36.897Z,51.259464
2023-05-14T02:31:36.929Z,51.259468
2023-05-14T02:32:36.943Z,51.259510
2023-05-14T02:33:37.106Z,51.259556
2023-05-14T02:34:36.845Z,51.259514
2023-05-14T02:35:36.858Z,51.259476
2023-05-14T02:36:36.820Z,51.259521
2023-05-14T02:37:36.819Z,51.259525
2023-05-14T02:38:36.810Z,51.259518
2023-05-14T02:39:36.801Z,51.259541
2023-05-14T02:40:36.797Z,51.259529
2023-05-14T02:41:36.765Z,51.259510
2023-05-14T02:42:36.768Z,51.259491
2023-05-14T02:43:36.752Z,51.259579
2023-05-14T02:44:36.779Z,51.259541
2023-05-14T02:45:36.761Z,51.259453
2023-05-14T02:46:36.787Z,51.259430
2023-05-14T02:47:38.161Z,51.259438
2023-05-14T02:48:37.714Z,51.259449
2023-05-14T02:49:36.715Z,51.259552
2023-05-14T02:50:36.694Z,51.259521
2023-05-14T02:51:36.690Z,51.259533
2023-05-14T02:52:36.706Z,51.259533
2023-05-14T02:53:36.651Z,51.259415
2023-05-14T02:54:37.683Z,51.259357
2023-05-14T02:55:36.653Z,51.259399
2023-05-14T02:56:36.642Z,51.259438
2023-05-14T02:57:36.647Z,51.259502
2023-05-14T02:58:36.636Z,51.259502
2023-05-14T02:59:36.625Z,51.259518
2023-05-14T03:00:36.595Z,51.259480
2023-05-14T03:01:36.591Z,51.259365
2023-05-14T03:02:36.653Z,51.259441
2023-05-14T03:03:36.609Z,51.259438
2023-05-14T03:04:36.558Z,51.259472
2023-05-14T03:05:36.545Z,51.259563
2023-05-14T03:06:36.538Z,51.259518
2023-05-14T03:07:36.591Z,51.259495
2023-05-14T03:08:36.540Z,51.259510
2023-05-14T03:09:38.312Z,51.259426
2023-05-14T03:10:37.493Z,51.259178
2023-05-14T03:11:36.486Z,51.259262
2023-05-14T03:12:36.546Z,51.259388
2023-05-14T03:13:36.472Z,51.259518
2023-05-14T03:14:36.449Z,51.259563
2023-05-14T03:15:36.462Z,51.259529
2023-05-14T03:16:36.482Z,51.259464
2023-05-14T03:17:36.469Z,51.259407
2023-05-14T03:18:36.451Z,51.259476
2023-05-14T03:19:36.409Z,51.259430
2023-05-14T03:20:36.397Z,51.259407
2023-05-14T03:21:36.396Z,51.259422
2023-05-14T03:22:36.391Z,51.259380
2023-05-14T03:23:36.375Z,51.259361
2023-05-14T03:24:36.355Z,51.259350
2023-05-14T03:25:36.449Z,51.259296
2023-05-14T03:26:36.356Z,51.259373
2023-05-14T03:27:36.350Z,51.259399
2023-05-14T03:28:36.327Z,51.259449
2023-05-14T03:29:36.309Z,51.259457
2023-05-14T03:30:36.418Z,51.259453
2023-05-14T03:31:36.303Z,51.259434
2023-05-14T03:32:36.317Z,51.259445
2023-05-14T03:33:36.256Z,51.259434
2023-05-14T03:34:36.259Z,51.259407
2023-05-14T03:35:36.237Z,51.259430
2023-05-14T03:36:36.321Z,51.259464
2023-05-14T03:37:36.231Z,51.259426
2023-05-14T03:38:36.205Z,51.259491
2023-05-14T03:39:36.217Z,51.259506
2023-05-14T03:40:36.218Z,51.259483
2023-05-14T03:41:36.283Z,51.259476
2023-05-14T03:42:36.210Z,51.259537
2023-05-14T03:43:36.172Z,51.259514
2023-05-14T03:44:36.148Z,51.259502
2023-05-14T03:45:36.166Z,51.259544
2023-05-14T03:46:36.131Z,51.259541
2023-05-14T03:48:08.270Z,51.259506
2023-05-14T03:48:36.114Z,51.259506
2023-05-14T03:49:36.105Z,51.259514
2023-05-14T03:50:36.145Z,51.259487
2023-05-14T03:51:36.087Z,51.259483
2023-05-14T03:52:36.077Z,51.259495
2023-05-14T03:53:36.065Z,51.259502
2023-05-14T03:54:36.085Z,51.259483
2023-05-14T03:55:36.059Z,51.259434
2023-05-14T03:56:36.030Z,51.259533
2023-05-14T03:57:36.029Z,51.259502
2023-05-14T03:58:36.010Z,51.259544
2023-05-14T03:59:36.034Z,51.259499
2023-05-14T04:00:35.991Z,51.259514
2023-05-14T04:01:35.976Z,51.259510
2023-05-14T04:02:36.103Z,51.259514
2023-05-14T04:03:36.318Z,51.259518
2023-05-14T04:04:36.061Z,51.259476
2023-05-14T04:05:35.942Z,51.259495
2023-05-14T04:06:35.935Z,51.259495
2023-05-14T04:07:35.928Z,51.259438
2023-05-14T04:08:35.974Z,51.259499
2023-05-14T04:09:35.921Z,51.259483
2023-05-14T04:10:36.014Z,51.259460
2023-05-14T04:11:35.884Z,51.259476
2023-05-14T04:12:35.883Z,51.259483
2023-05-14T04:13:35.866Z,51.259453
2023-05-14T04:14:35.851Z,51.259506
2023-05-14T04:15:35.908Z,51.259480
2023-05-14T04:16:35.876Z,51.259514
2023-05-14T04:17:35.869Z,51.259483
2023-05-14T04:18:35.914Z,51.259418
2023-05-14T04:19:35.835Z,51.259529
2023-05-14T04:20:35.794Z,51.259487
2023-05-14T04:21:35.789Z,51.259472
2023-05-14T04:22:35.815Z,51.259499
2023-05-14T04:23:35.776Z,51.259491
2023-05-14T04:24:35.770Z,51.259491
2023-05-14T04:25:35.753Z,51.259495
2023-05-14T04:26:35.750Z,51.259533
2023-05-14T04:27:35.750Z,51.259521
2023-05-14T04:28:35.720Z,51.259537
2023-05-14T04:29:35.714Z,51.259529
2023-05-14T04:30:35.696Z,51.259521
2023-05-14T04:31:35.704Z,51.259510
2023-05-14T04:32:35.745Z,51.259476
2023-05-14T04:33:35.667Z,51.259491
2023-05-14T04:34:35.669Z,51.259491
2023-05-14T04:35:35.675Z,51.259556
2023-05-14T04:36:35.658Z,51.259548
2023-05-14T04:37:35.667Z,51.259541
2023-05-14T04:38:35.623Z,51.259506
2023-05-14T04:39:35.616Z,51.259506
2023-05-14T04:40:35.592Z,51.259548
2023-05-14T04:41:35.620Z,51.259586
2023-05-14T04:42:35.625Z,51.259567
2023-05-14T04:43:35.582Z,51.259602
2023-05-14T04:44:35.561Z,51.259552
2023-05-14T04:45:35.621Z,51.259533
2023-05-14T04:46:35.616Z,51.259510
2023-05-14T04:47:35.564Z,51.259510
2023-05-14T04:48:35.542Z,51.259480
2023-05-14T04:49:35.521Z,51.259487
2023-05-14T04:50:35.544Z,51.259548
2023-05-14T04:51:35.515Z,51.259483
2023-05-14T04:52:35.500Z,51.259506
2023-05-14T04:53:35.486Z,51.259506
2023-05-14T04:54:35.514Z,51.259480
2023-05-14T04:55:35.477Z,51.259499
2023-05-14T04:56:35.443Z,51.259499
2023-05-14T04:57:35.443Z,51.259502
2023-05-14T04:58:35.458Z,51.259506
2023-05-14T04:59:35.415Z,51.259544
2023-05-14T05:00:35.414Z,51.259491
2023-05-14T05:01:35.419Z,51.259476
2023-05-14T05:02:35.420Z,51.259480
2023-05-14T05:03:35.461Z,51.259491
2023-05-14T05:04:35.374Z,51.259384
2023-05-14T05:05:35.370Z,51.259506
2023-05-14T05:06:35.359Z,51.259533
2023-05-14T05:07:35.340Z,51.259575
2023-05-14T05:08:35.323Z,51.259506
2023-05-14T05:09:35.357Z,51.259544
2023-05-14T05:10:35.311Z,51.259518
2023-05-14T05:11:35.307Z,51.259533
2023-05-14T05:12:35.292Z,51.259556
2023-05-14T05:13:35.288Z,51.259533
2023-05-14T05:14:35.296Z,51.259502
2023-05-14T05:15:35.420Z,51.259548
2023-05-14T05:16:35.287Z,51.259529
2023-05-14T05:17:35.274Z,51.259541
2023-05-14T05:18:35.309Z,51.259537
2023-05-14T05:19:43.187Z,51.259552
2023-05-14T05:20:37.211Z,51.259544
2023-05-14T05:21:35.201Z,51.259506
2023-05-14T05:22:35.179Z,51.259480
2023-05-14T05:23:35.210Z,51.259525
2023-05-14T05:24:35.177Z,51.259567
2023-05-14T05:25:35.158Z,51.259571
2023-05-14T05:26:35.151Z,51.259632
2023-05-14T05:27:35.136Z,51.259659
2023-05-14T05:28:35.137Z,51.259678
2023-05-14T05:29:35.127Z,51.259644
2023-05-14T05:30:35.115Z,51.259563
2023-05-14T05:31:35.142Z,51.259525
2023-05-14T05:32:35.112Z,51.259560
2023-05-14T05:33:35.112Z,51.259514
2023-05-14T05:34:35.077Z,51.259472
2023-05-14T05:35:35.057Z,51.259537
2023-05-14T05:36:36.042Z,51.259617
2023-05-14T05:37:35.085Z,51.259575
2023-05-14T05:38:35.037Z,51.259571
2023-05-14T05:39:35.328Z,51.259556
2023-05-14T05:40:35.016Z,51.259480
2023-05-14T05:41:35.009Z,51.259544
2023-05-14T05:42:34.995Z,51.259529
2023-05-14T05:43:34.976Z,51.259525
2023-05-14T05:44:34.956Z,51.259506
2023-05-14T05:45:34.947Z,51.259521
2023-05-14T05:46:34.987Z,51.259521
2023-05-14T05:47:35.016Z,51.259487
2023-05-14T05:48:34.918Z,51.259495
2023-05-14T05:49:34.925Z,51.259510
2023-05-14T05:50:34.903Z,51.259533
2023-05-14T05:51:34.928Z,51.259521
2023-05-14T05:52:34.879Z,51.259560
2023-05-14T05:53:34.870Z,51.259602
2023-05-14T05:54:34.877Z,51.259567
2023-05-14T05:55:34.852Z,51.259491
2023-05-14T05:56:34.917Z,51.259571
2023-05-14T05:57:34.847Z,51.259567
2023-05-14T05:58:34.833Z,51.259487
2023-05-14T05:59:34.837Z,51.259499
2023-05-14T06:00:34.818Z,51.259525
2023-05-14T06:01:34.812Z,51.259552
2023-05-14T06:02:34.951Z,51.259533
2023-05-14T06:03:34.788Z,51.259506
2023-05-14T06:04:34.786Z,51.259521
2023-05-14T06:05:34.861Z,51.259499
2023-05-14T06:06:34.760Z,51.259552
2023-05-14T06:07:34.768Z,51.259621
2023-05-14T06:08:34.729Z,51.259640
2023-05-14T06:09:34.742Z,51.259541
2023-05-14T06:10:34.746Z,51.259518
2023-05-14T06:11:34.694Z,51.259583
2023-05-14T06:12:34.706Z,51.259590
2023-05-14T06:13:34.678Z,51.259552
2023-05-14T06:14:34.684Z,51.259533
2023-05-14T06:15:34.684Z,51.259544
2023-05-14T06:16:34.791Z,51.259544
2023-05-14T06:17:34.648Z,51.259537
2023-05-14T06:18:34.658Z,51.259514
2023-05-14T06:19:34.642Z,51.259613
2023-05-14T06:20:34.623Z,51.259453
2023-05-14T06:21:34.612Z,51.259598
2023-05-14T06:22:34.594Z,51.259605
2023-05-14T06:23:34.576Z,51.259563
2023-05-14T06:24:34.595Z,51.259529
2023-05-14T06:25:34.556Z,51.259514
2023-05-14T06:26:34.543Z,51.259586
2023-05-14T06:27:34.538Z,51.259518
2023-05-14T06:28:34.539Z,51.259418
2023-05-14T06:29:34.542Z,51.259445
2023-05-14T06:30:34.506Z,51.259480
2023-05-14T06:31:34.526Z,51.259499
2023-05-14T06:32:34.503Z,51.259491
2023-05-14T06:33:34.500Z,51.259357
2023-05-14T06:34:34.466Z,51.259354
2023-05-14T06:35:34.463Z,51.259445
2023-05-14T06:36:34.443Z,51.259415
2023-05-14T06:37:34.436Z,51.259449
2023-05-14T06:38:34.456Z,51.259460
2023-05-14T06:39:34.417Z,51.259483
2023-05-14T06:40:34.413Z,51.259487
2023-05-14T06:41:34.415Z,51.259453
2023-05-14T06:42:34.408Z,51.259480
2023-05-14T06:43:34.428Z,51.259506
2023-05-14T06:44:34.377Z,51.259411
2023-05-14T06:45:34.379Z,51.259502
2023-05-14T06:46:34.351Z,51.259510
2023-05-14T06:47:34.384Z,51.259460
2023-05-14T06:48:34.383Z,51.259537
2023-05-14T06:49:34.320Z,51.259544
2023-05-14T06:50:34.314Z,51.259533
2023-05-14T06:51:34.306Z,51.259525
2023-05-14T06:52:34.304Z,51.259521
2023-05-14T06:53:34.279Z,51.259525
2023-05-14T06:54:34.275Z,51.259506
2023-05-14T06:55:34.257Z,51.259518
2023-05-14T06:56:34.271Z,51.259529
2023-05-14T06:57:34.284Z,51.259445
2023-05-14T06:58:34.234Z,51.259506
2023-05-14T06:59:34.220Z,51.259487
2023-05-14T07:00:34.223Z,51.259495
2023-05-14T07:01:34.269Z,51.259525
2023-05-14T07:02:34.276Z,51.259541
2023-05-14T07:03:34.173Z,51.259533
2023-05-14T07:04:34.183Z,51.259514
2023-05-14T07:05:34.196Z,51.259487
2023-05-14T07:06:34.179Z,51.259571
2023-05-14T07:07:34.138Z,51.259590
2023-05-14T07:08:34.131Z,51.259541
2023-05-14T07:09:34.127Z,51.259605
2023-05-14T07:10:34.146Z,51.259537
2023-05-14T07:11:34.111Z,51.259567
2023-05-14T07:12:34.096Z,51.259586
2023-05-14T07:13:34.080Z,51.259552
2023-05-14T07:14:34.071Z,51.259453
2023-05-14T07:15:34.073Z,51.259476
2023-05-14T07:16:34.126Z,51.259502
2023-05-14T07:17:34.093Z,51.259491
2023-05-14T07:18:35.040Z,51.259464
2023-05-14T07:19:34.029Z,51.259521
2023-05-14T07:20:34.041Z,51.259510
2023-05-14T07:21:34.007Z,51.259514
2023-05-14T07:22:33.987Z,51.259506
2023-05-14T07:23:34.989Z,51.259483
2023-05-14T07:24:33.995Z,51.259541
2023-05-14T07:25:33.980Z,51.259541
2023-05-14T07:26:33.965Z,51.259548
2023-05-14T07:27:33.951Z,51.259521
2023-05-14T07:28:33.944Z,51.259487
2023-05-14T07:29:33.940Z,51.259514
2023-05-14T07:30:33.917Z,51.259544
2023-05-14T07:31:33.981Z,51.259548
2023-05-14T07:32:33.917Z,51.259583
2023-05-14T07:33:33.887Z,51.259560
2023-05-14T07:34:33.921Z,51.259514
2023-05-14T07:35:33.875Z,51.259476
2023-05-14T07:36:33.852Z,51.259521
2023-05-14T07:37:33.856Z,51.259510
2023-05-14T07:38:33.858Z,51.259571
2023-05-14T07:39:33.838Z,51.259579
2023-05-14T07:40:33.840Z,51.259552
2023-05-14T07:41:33.835Z,51.259556
2023-05-14T07:42:37.091Z,51.259521
2023-05-14T07:43:34.839Z,51.259556
2023-05-14T07:44:33.793Z,51.259499
2023-05-14T07:45:33.769Z,51.259487
2023-05-14T07:46:33.788Z,51.259487
2023-05-14T07:47:33.826Z,51.259487
2023-05-14T07:48:33.796Z,51.259518
2023-05-14T07:49:33.730Z,51.259464
2023-05-14T07:50:33.718Z,51.259495
2023-05-14T07:51:33.715Z,51.259441
2023-05-14T07:52:33.718Z,51.259438
2023-05-14T07:53:33.692Z,51.259521
2023-05-14T07:54:33.748Z,51.259563
2023-05-14T07:55:33.678Z,51.259529
2023-05-14T07:56:33.711Z,51.259537
2023-05-14T07:57:33.679Z,51.259533
2023-05-14T07:58:33.635Z,51.259556
2023-05-14T07:59:33.654Z,51.259590
2023-05-14T08:00:33.625Z,51.259491
2023-05-14T08:01:33.612Z,51.259506
2023-05-14T08:02:33.661Z,51.259533
2023-05-14T08:03:33.671Z,51.259388
2023-05-14T08:04:33.730Z,51.259480
2023-05-14T08:05:33.584Z,51.259575
2023-05-14T08:06:33.611Z,51.259525
2023-05-14T08:07:33.547Z,51.259495
2023-05-14T08:08:33.549Z,51.259544
2023-05-14T08:09:33.536Z,51.259518
2023-05-14T08:10:33.556Z,51.259506
2023-05-14T08:11:33.544Z,51.259537
2023-05-14T08:12:33.503Z,51.259510
2023-05-14T08:13:33.496Z,51.259495
2023-05-14T08:14:33.496Z,51.259487
2023-05-14T08:15:33.472Z,51.259441
2023-05-14T08:16:33.494Z,51.259468
2023-05-14T08:17:33.481Z,51.259502
2023-05-14T08:18:33.462Z,51.259514
2023-05-14T08:19:33.445Z,51.259468
2023-05-14T08:20:33.482Z,51.259441
2023-05-14T08:21:33.422Z,51.259441
2023-05-14T08:22:33.403Z,51.259525
2023-05-14T08:23:33.522Z,51.259445
2023-05-14T08:24:33.391Z,51.259491
2023-05-14T08:25:33.396Z,51.259441
2023-05-14T08:26:33.384Z,51.259529
2023-05-14T08:28:05.257Z,51.259583
2023-05-14T08:28:33.388Z,51.259510
2023-05-14T08:29:33.340Z,51.259529
2023-05-14T08:30:33.410Z,51.259548
2023-05-14T08:31:33.364Z,51.259441
2023-05-14T08:32:33.350Z,51.259483
2023-05-14T08:33:33.396Z,51.259518
2023-05-14T08:34:33.327Z,51.259537
2023-05-14T08:35:33.323Z,51.259460
2023-05-14T08:36:33.281Z,51.259464
2023-05-14T08:37:33.250Z,51.259480
2023-05-14T08:38:33.258Z,51.259571
2023-05-14T08:39:33.259Z,51.259514
2023-05-14T08:40:33.233Z,51.259556
2023-05-14T08:41:33.218Z,51.259457
2023-05-14T08:42:33.232Z,51.259422
2023-05-14T08:43:33.212Z,51.259415
2023-05-14T08:44:33.234Z,51.259491
2023-05-14T08:45:33.181Z,51.259541
2023-05-14T08:46:33.176Z,51.259434
2023-05-14T08:47:33.206Z,51.259392
2023-05-14T08:48:33.305Z,51.259495
2023-05-14T08:49:33.189Z,51.259476
2023-05-14T08:50:33.140Z,51.259514
2023-05-14T08:51:33.117Z,51.259499
2023-05-14T08:52:33.114Z,51.259449
2023-05-14T08:53:33.122Z,51.259491
2023-05-14T08:54:33.093Z,51.259506
2023-05-14T08:55:33.087Z,51.259460
2023-05-14T08:56:33.078Z,51.259460
2023-05-14T08:57:33.059Z,51.259521
2023-05-14T08:58:33.936Z,51.259514
2023-05-14T08:59:33.042Z,51.259483
2023-05-14T09:00:33.031Z,51.259544
2023-05-14T09:01:33.050Z,51.259464
2023-05-14T09:02:33.040Z,51.259468
2023-05-14T09:03:33.085Z,51.259373
2023-05-14T09:04:32.997Z,51.259350
2023-05-14T09:05:32.969Z,51.259411
2023-05-14T09:06:32.959Z,51.259510
2023-05-14T09:07:32.967Z,51.259415
2023-05-14T09:08:32.989Z,51.259468
2023-05-14T09:09:32.974Z,51.259552
2023-05-14T09:10:32.926Z,51.259491
2023-05-14T09:11:32.933Z,51.259495
2023-05-14T09:12:32.923Z,51.259438
2023-05-14T09:13:32.900Z,51.259430
2023-05-14T09:14:32.896Z,51.259491
2023-05-14T09:15:32.905Z,51.259453
2023-05-14T09:16:32.948Z,51.259487
2023-05-14T09:17:32.890Z,51.259418
2023-05-14T09:18:32.871Z,51.259556
2023-05-14T09:19:32.867Z,51.259537
2023-05-14T09:20:32.855Z,51.259460
2023-05-14T09:21:33.502Z,51.259445
2023-05-14T09:22:33.846Z,51.259468
2023-05-14T09:23:32.803Z,51.259457
2023-05-14T09:24:32.794Z,51.259548
2023-05-14T09:25:32.783Z,51.259457
2023-05-14T09:26:32.797Z,51.259548
2023-05-14T09:27:32.764Z,51.259514
2023-05-14T09:28:32.754Z,51.259510
2023-05-14T09:29:32.756Z,51.259472
2023-05-14T09:30:32.760Z,51.259495
2023-05-14T09:31:32.778Z,51.259487
2023-05-14T09:32:32.750Z,51.259525
2023-05-14T09:33:32.692Z,51.259499
2023-05-14T09:34:32.697Z,51.259529
2023-05-14T09:35:32.721Z,51.259476
2023-05-14T09:36:32.669Z,51.259502
2023-05-14T09:37:32.688Z,51.259445
2023-05-14T09:38:32.657Z,51.259514
2023-05-14T09:39:32.691Z,51.259583
2023-05-14T09:40:32.661Z,51.259556
2023-05-14T09:41:32.625Z,51.259571
2023-05-14T09:42:32.620Z,51.259514
2023-05-14T09:43:32.608Z,51.259544
2023-05-14T09:44:32.627Z,51.259510
2023-05-14T09:45:32.597Z,51.259506
2023-05-14T09:46:32.578Z,51.259510
2023-05-14T09:47:32.723Z,51.259453
2023-05-14T09:48:32.588Z,51.259487
2023-05-14T09:49:32.560Z,51.259495
2023-05-14T09:50:32.535Z,51.259483
2023-05-14T09:51:32.523Z,51.259426
2023-05-14T09:52:32.540Z,51.259464
2023-05-14T09:53:32.515Z,51.259468
2023-05-14T09:54:32.517Z,51.259449
2023-05-14T09:55:32.502Z,51.259426
2023-05-14T09:56:32.495Z,51.259415
2023-05-14T09:57:32.517Z,51.259480
2023-05-14T09:59:06.887Z,51.259445
2023-05-14T09:59:32.458Z,51.259487
2023-05-14T10:00:32.453Z,51.259510
2023-05-14T10:01:32.473Z,51.259499
2023-05-14T10:02:32.462Z,51.259480
2023-05-14T10:03:32.448Z,51.259468
2023-05-14T10:04:32.571Z,51.259518
2023-05-14T10:05:32.397Z,51.259476
2023-05-14T10:06:32.392Z,51.259480
2023-05-14T10:07:32.384Z,51.259453
2023-05-14T10:08:32.422Z,51.259518
2023-05-14T10:09:32.361Z,51.259518
2023-05-14T10:10:32.355Z,51.259521
2023-05-14T10:11:32.341Z,51.259468
2023-05-14T10:12:32.331Z,51.259487
2023-05-14T10:13:32.345Z,51.259518
2023-05-14T10:14:32.313Z,51.259499
2023-05-14T10:15:32.308Z,51.259476
2023-05-14T10:16:32.301Z,51.259518
2023-05-14T10:17:32.332Z,51.259476
2023-05-14T10:18:32.339Z,51.259468
2023-05-14T10:19:32.255Z,51.259464
2023-05-14T10:20:32.256Z,51.259491
2023-05-14T10:21:32.253Z,51.259537
2023-05-14T10:22:32.254Z,51.259514
2023-05-14T10:23:32.258Z,51.259525
2023-05-14T10:24:32.270Z,51.259502
2023-05-14T10:25:32.210Z,51.259480
2023-05-14T10:26:32.264Z,51.259575
2023-05-14T10:27:32.216Z,51.259594
2023-05-14T10:28:32.175Z,51.259579
2023-05-14T10:29:32.170Z,51.259537
2023-05-14T10:30:32.167Z,51.259487
2023-05-14T10:31:32.215Z,51.259495
2023-05-14T10:32:32.173Z,51.259491
2023-05-14T10:33:32.124Z,51.259541
2023-05-14T10:34:32.145Z,51.259487
2023-05-14T10:35:32.105Z,51.259468
2023-05-14T10:36:32.125Z,51.259426
2023-05-14T10:37:32.145Z,51.259476
2023-05-14T10:38:32.083Z,51.259441
2023-05-14T10:39:32.070Z,51.259483
2023-05-14T10:40:32.087Z,51.259476
2023-05-14T10:41:32.056Z,51.259449
2023-05-14T10:42:32.032Z,51.259537
2023-05-14T10:43:32.029Z,51.259453
2023-05-14T10:44:32.044Z,51.259506
2023-05-14T10:45:32.036Z,51.259506
2023-05-14T10:46:32.012Z,51.259426
2023-05-14T10:47:32.017Z,51.259491
2023-05-14T10:48:31.983Z,51.259468
2023-05-14T10:49:43.017Z,51.259438
2023-05-14T10:50:34.052Z,51.259434
2023-05-14T10:51:31.982Z,51.259457
2023-05-14T10:52:31.936Z,51.259480
2023-05-14T10:53:31.930Z,51.259460
2023-05-14T10:54:31.975Z,51.259426
2023-05-14T10:55:31.954Z,51.259453
2023-05-14T10:56:31.898Z,51.259514
2023-05-14T10:57:31.909Z,51.259502
2023-05-14T10:58:31.887Z,51.259502
2023-05-14T10:59:31.884Z,51.259533
2023-05-14T11:00:31.844Z,51.259529
2023-05-14T11:01:32.900Z,51.259529
2023-05-14T11:02:31.859Z,51.259529
2023-05-14T11:03:31.878Z,51.259445
2023-05-14T11:04:31.864Z,51.259407
2023-05-14T11:05:31.803Z,51.259247
2023-05-14T11:06:31.801Z,51.259293
2023-05-14T11:07:31.812Z,51.259422
2023-05-14T11:08:31.804Z,51.259438
2023-05-14T11:09:31.797Z,51.259506
2023-05-14T11:10:31.773Z,51.259495
2023-05-14T11:11:31.758Z,51.259399
2023-05-14T11:12:31.745Z,51.259426
2023-05-14T11:13:31.740Z,51.259460
2023-05-14T11:14:32.737Z,51.259495
2023-05-14T11:15:31.711Z,51.259426
2023-05-14T11:16:31.732Z,51.259380
2023-05-14T11:17:31.733Z,51.259449
2023-05-14T11:18:31.723Z,51.259426
2023-05-14T11:19:31.678Z,51.259453
2023-05-14T11:20:31.680Z,51.259407
2023-05-14T11:21:31.820Z,51.259426
2023-05-14T11:22:31.675Z,51.259426
2023-05-14T11:23:31.651Z,51.259430
2023-05-14T11:24:31.623Z,51.259449